createdAt,value
2022-09-07T00:00:52.388Z,2.63
2022-09-07T00:06:14.473Z,2.40
2022-09-07T00:11:36.202Z,1.60
2022-09-07T00:16:57.869Z,2.30
2022-09-07T00:22:19.591Z,2.60
2022-09-07T00:27:41.515Z,2.40
2022-09-07T00:33:03.223Z,2.03
2022-09-07T00:38:25.387Z,1.73
2022-09-07T00:43:53.410Z,1.63
2022-09-07T00:49:19.397Z,2.28
2022-09-07T00:54:46.223Z,2.28
2022-09-07T01:00:09.188Z,2.17
2022-09-07T01:05:40.962Z,2.13
2022-09-07T01:11:02.972Z,1.80
2022-09-07T01:16:55.412Z,2.85
2022-09-07T01:22:25.860Z,2.70
2022-09-07T01:28:14.739Z,2.33
2022-09-07T01:33:59.517Z,1.95
2022-09-07T01:39:27.453Z,1.27
2022-09-07T01:45:02.374Z,1.33
2022-09-07T01:50:28.525Z,1.63
2022-09-07T01:55:55.934Z,1.50
2022-09-07T02:01:30.024Z,1.35
2022-09-07T02:07:01.207Z,1.38
2022-09-07T02:12:31.323Z,2.67
2022-09-07T02:17:59.645Z,1.63
2022-09-07T02:23:26.182Z,1.88
2022-09-07T02:28:48.443Z,1.65
2022-09-07T02:34:10.539Z,0.80
2022-09-07T02:39:32.658Z,1.50
2022-09-07T02:44:54.478Z,1.05
2022-09-07T02:50:39.239Z,1.65
2022-09-07T02:56:22.580Z,1.27
2022-09-07T03:02:10.416Z,1.30
2022-09-07T03:07:43.493Z,1.77
2022-09-07T03:13:06.391Z,1.15
2022-09-07T03:18:28.529Z,1.02
2022-09-07T03:23:51.929Z,1.73
2022-09-07T03:29:13.724Z,1.00
2022-09-07T03:34:36.420Z,1.55
2022-09-07T03:39:58.282Z,1.73
2022-09-07T03:45:20.116Z,1.05
2022-09-07T03:50:41.927Z,1.42
2022-09-07T03:56:10.088Z,2.75
2022-09-07T04:01:31.979Z,0.95
2022-09-07T04:06:53.797Z,1.38
2022-09-07T04:12:15.520Z,1.45
2022-09-07T04:17:37.284Z,1.13
2022-09-07T04:22:59.031Z,3.08
2022-09-07T04:28:21.539Z,1.83
2022-09-07T04:33:44.531Z,2.00
2022-09-07T04:39:06.371Z,1.52
2022-09-07T04:44:28.097Z,2.55
2022-09-07T04:49:53.122Z,1.80
2022-09-07T04:55:14.939Z,1.20
2022-09-07T05:00:37.899Z,1.83
2022-09-07T05:06:07.345Z,1.52
2022-09-07T05:11:30.123Z,1.17
2022-09-07T05:16:52.059Z,2.50
2022-09-07T05:22:13.795Z,1.30
2022-09-07T05:27:35.472Z,1.65
2022-09-07T05:32:57.179Z,1.38
2022-09-07T05:38:18.902Z,1.33
2022-09-07T05:49:23.644Z,1.63
2022-09-07T05:54:45.680Z,2.15
2022-09-07T06:00:07.843Z,5.03
2022-09-07T06:05:29.646Z,5.45
2022-09-07T06:10:51.309Z,2.40
2022-09-07T06:16:14.537Z,1.55
2022-09-07T06:21:38.325Z,3.15
2022-09-07T06:27:00.008Z,2.95
2022-09-07T06:38:03.948Z,4.20
2022-09-07T06:43:25.686Z,4.93
2022-09-07T06:48:47.578Z,2.88
2022-09-07T06:59:51.699Z,2.95
2022-09-07T07:05:13.377Z,2.80
2022-09-07T07:10:39.314Z,5.15
2022-09-07T07:16:10.039Z,7.60
2022-09-07T07:21:48.540Z,3.58
2022-09-07T07:27:13.883Z,3.75
2022-09-07T07:32:37.734Z,3.55
2022-09-07T07:43:41.441Z,5.20
2022-09-07T07:49:03.098Z,7.18
2022-09-07T07:54:24.820Z,4.38
2022-09-07T07:59:46.478Z,3.20
2022-09-07T08:05:08.431Z,2.65
2022-09-07T08:10:30.246Z,2.50
2022-09-07T08:15:52.341Z,3.47
2022-09-07T08:21:15.877Z,6.47
2022-09-07T08:26:37.542Z,5.25
2022-09-07T08:31:59.183Z,6.90
2022-09-07T08:37:20.871Z,7.68
2022-09-07T08:43:01.363Z,4.82
2022-09-07T08:48:31.314Z,7.15
2022-09-07T08:53:53.299Z,10.77
2022-09-07T08:59:23.008Z,9.13
2022-09-07T09:10:29.439Z,8.43
2022-09-07T09:16:04.344Z,13.82
2022-09-07T09:21:27.261Z,11.07
2022-09-07T09:26:56.710Z,11.50
2022-09-07T09:32:39.998Z,7.47
2022-09-07T09:38:03.809Z,9.50
2022-09-07T09:43:31.574Z,16.48
2022-09-07T09:49:05.609Z,9.43
2022-09-07T09:54:37.319Z,13.93
2022-09-07T10:00:07.011Z,8.45
2022-09-07T10:05:35.749Z,6.50
2022-09-07T10:11:10.115Z,8.70
2022-09-07T10:16:42.994Z,8.13
2022-09-07T10:22:22.287Z,5.97
2022-09-07T10:27:46.929Z,5.28
2022-09-07T10:33:21.846Z,6.68
2022-09-07T10:38:53.894Z,7.73
2022-09-07T10:44:28.779Z,10.90
2022-09-07T10:55:48.118Z,4.32
2022-09-07T11:01:28.324Z,5.03
2022-09-07T11:06:55.366Z,6.35
2022-09-07T11:12:26.048Z,6.78
2022-09-07T11:17:57.487Z,5.72
2022-09-07T11:23:28.750Z,8.85
2022-09-07T11:34:57.594Z,6.73
2022-09-07T11:40:39.747Z,7.53
2022-09-07T11:46:08.047Z,6.47
2022-09-07T11:51:40.676Z,5.60
2022-09-07T11:57:21.659Z,6.82
2022-09-07T12:03:04.328Z,3.80
2022-09-07T12:08:34.777Z,3.90
2022-09-07T12:14:08.529Z,7.20
2022-09-07T12:19:30.346Z,5.82
2022-09-07T12:24:53.880Z,5.53
2022-09-07T12:30:15.468Z,3.65
2022-09-07T12:35:40.919Z,4.10
2022-09-07T12:41:05.116Z,3.28
2022-09-07T12:46:34.864Z,4.20
2022-09-07T12:52:27.644Z,5.40
2022-09-07T12:58:30.177Z,10.00
2022-09-07T13:04:00.766Z,11.60
2022-09-07T13:09:31.212Z,9.85
2022-09-07T13:14:56.328Z,5.78
2022-09-07T13:20:23.716Z,6.18
2022-09-07T13:25:48.607Z,8.18
2022-09-07T13:31:47.517Z,7.40
2022-09-07T13:37:45.977Z,9.77
2022-09-07T13:43:16.825Z,5.32
2022-09-07T13:48:50.493Z,2.72
2022-09-07T13:54:37.282Z,11.65
2022-09-07T13:59:59.559Z,4.82
2022-09-07T14:05:22.565Z,6.65
2022-09-07T14:10:48.899Z,4.72
2022-09-07T14:16:11.038Z,9.77
2022-09-07T14:21:32.864Z,5.88
2022-09-07T14:26:55.052Z,4.45
2022-09-07T14:32:25.186Z,8.88
2022-09-07T14:37:48.372Z,6.13
2022-09-07T14:43:33.695Z,9.13
2022-09-07T14:48:58.128Z,7.03
2022-09-07T14:54:34.335Z,2.77
2022-09-07T14:59:57.402Z,5.30
2022-09-07T15:05:29.428Z,5.43
2022-09-07T15:16:45.062Z,8.25
2022-09-07T15:22:13.410Z,14.52
2022-09-07T15:27:35.402Z,5.63
2022-09-07T15:32:57.685Z,64.53
2022-09-07T15:44:02.441Z,58.85
2022-09-07T15:49:24.162Z,54.22
2022-09-07T15:54:45.865Z,44.38
2022-09-07T16:00:08.357Z,41.08
2022-09-07T16:05:31.385Z,36.80
2022-09-07T16:10:54.316Z,25.30
2022-09-07T16:16:17.258Z,26.35
2022-09-07T16:21:41.139Z,20.20
2022-09-07T16:27:03.325Z,21.17
2022-09-07T16:43:49.613Z,15.45
2022-09-07T16:49:12.148Z,16.85
2022-09-07T16:54:33.815Z,15.45
2022-09-07T16:59:55.554Z,15.82
2022-09-07T17:05:17.248Z,20.40
2022-09-07T17:10:38.932Z,21.73
2022-09-07T17:16:30.808Z,23.83
2022-09-07T17:21:53.882Z,21.52
2022-09-07T17:27:15.555Z,22.63
2022-09-07T17:32:37.542Z,13.77
2022-09-07T17:38:00.946Z,21.38
2022-09-07T17:43:44.815Z,16.23
2022-09-07T17:49:08.168Z,22.38
2022-09-07T17:54:29.916Z,23.60
2022-09-07T18:05:33.637Z,21.30
2022-09-07T18:16:37.205Z,17.30
2022-09-07T18:21:59.539Z,33.35
2022-09-07T18:27:21.587Z,87.60
2022-09-07T18:32:45.077Z,41.83
2022-09-07T18:38:07.158Z,43.08
2022-09-07T18:43:30.974Z,24.25
2022-09-07T18:48:54.262Z,16.65
2022-09-07T18:54:15.936Z,22.00
2022-09-07T18:59:37.608Z,24.58
2022-09-07T19:10:40.886Z,21.00
2022-09-07T19:16:09.949Z,18.25
2022-09-07T19:21:37.532Z,19.40
2022-09-07T19:27:00.639Z,18.05
2022-09-07T19:32:22.819Z,18.48
2022-09-07T19:37:44.478Z,26.75
2022-09-07T19:43:06.667Z,25.63
2022-09-07T19:48:32.063Z,21.58
2022-09-07T19:53:53.947Z,15.68
2022-09-07T19:59:16.165Z,44.80
2022-09-07T20:04:38.134Z,34.95
2022-09-07T20:09:59.987Z,33.53
2022-09-07T20:15:21.618Z,46.17
2022-09-07T20:20:43.428Z,30.38
2022-09-07T20:26:10.937Z,34.92
2022-09-07T20:31:32.703Z,33.65
2022-09-07T20:36:54.951Z,24.27
2022-09-07T20:42:16.623Z,12.98
2022-09-07T20:47:38.500Z,8.30
2022-09-07T20:53:00.130Z,13.68
2022-09-07T20:58:21.774Z,8.00
2022-09-07T21:03:49.979Z,9.07
2022-09-07T21:09:11.722Z,8.77
2022-09-07T21:14:33.403Z,11.43
2022-09-07T21:19:55.031Z,13.13
2022-09-07T21:25:16.732Z,10.70
2022-09-07T21:30:38.413Z,8.45
2022-09-07T21:36:08.001Z,8.73
2022-09-07T21:41:30.566Z,14.48
2022-09-07T21:46:52.303Z,10.68
2022-09-07T21:52:14.114Z,9.32
2022-09-07T21:57:35.830Z,6.35
2022-09-07T22:02:57.833Z,6.78
2022-09-07T22:08:19.902Z,4.82
2022-09-07T22:13:41.928Z,5.30
2022-09-07T22:19:04.772Z,6.30
2022-09-07T22:24:26.596Z,5.88
2022-09-07T22:29:48.235Z,7.78
2022-09-07T22:35:10.351Z,6.65
2022-09-07T22:40:32.068Z,6.03
2022-09-07T22:45:53.718Z,4.97
2022-09-07T22:51:15.514Z,6.22
2022-09-07T22:56:37.448Z,6.63
2022-09-07T23:01:59.362Z,6.10
2022-09-07T23:07:22.029Z,3.30
2022-09-07T23:12:43.760Z,3.85
2022-09-07T23:18:05.444Z,3.67
2022-09-07T23:23:28.012Z,4.65
2022-09-07T23:29:00.482Z,4.75
2022-09-07T23:34:22.138Z,4.40
2022-09-07T23:39:44.607Z,5.60
2022-09-07T23:45:08.285Z,5.45
2022-09-07T23:50:29.985Z,5.13
2022-09-07T23:55:53.348Z,3.50
